Zalophus — WDG7231 — position and weather

sailwx.info

Track history (hours):
 
Tides and Currents Weather Stations Pressure Air Temp Water Temp Dewpoint Dewpoint Depression Visibility Wind Speed Wind Dir Waves Ship Positions

Zalophus

Owner: Golden Gate Scenic Steamship Corp, San Francisco, CA. More information available from US FCC via Universal Licensing System and Coast Guard Vessel Documentation Center.

Last reported at 2018-Jun-21 04:05 UTC. Time now 2018-Jun-21 11:53 UTC.
Position N 37°49' W 122°25'.

Length 47 m; draft 3 m.

Type: Passenger vessel. MMSI: 367565170.

Date/timePositionNaut miles runAvg speedWind from/ knotsBaromVisibWave heightAir tempDewpointWater temp
2018-Jun-21 04:05N 37°49' W 122°25'0 0.0
2018-Jun-21 04:00N 37°49' W 122°25'4 7.2
2018-Jun-21 03:31N 37°49' W 122°29'2 4.9
2018-Jun-21 03:00N 37°51' W 122°28'3 5.2
2018-Jun-21 02:31N 37°51' W 122°25'2 4.2
2018-Jun-21 02:01N 37°49' W 122°25'0 0.0
2018-Jun-21 01:30N 37°49' W 122°25'0 0.0
2018-Jun-21 01:01N 37°49' W 122°25'0 0.0
2018-Jun-21 00:31N 37°49' W 122°25'2 3.9
2018-Jun-21 00:00N 37°48' W 122°23'4 8.6
2018-Jun-20 23:31N 37°49' W 122°28'2 4.6
2018-Jun-20 23:00N 37°49' W 122°25'2 3.1
2018-Jun-20 22:30N 37°48' W 122°23'2 4.8
2018-Jun-20 22:00N 37°50' W 122°25'1 2.4
2018-Jun-20 21:30N 37°49' W 122°27'1 2.9
2018-Jun-20 21:00N 37°49' W 122°25'2 3.9
2018-Jun-20 20:30N 37°47' W 122°23'4 8.1
2018-Jun-20 20:00N 37°49' W 122°27'2 4.2
2018-Jun-20 19:30N 37°49' W 122°25'0 0.0
2018-Jun-20 19:00N 37°49' W 122°25'2 4.5
2018-Jun-20 18:30N 37°47' W 122°23'4 8.0
2018-Jun-20 18:00N 37°49' W 122°27'2 3.5
2018-Jun-20 17:30N 37°49' W 122°25'1 2.1
2018-Jun-20 17:01N 37°50' W 122°25'2 4.0
2018-Jun-20 16:30N 37°49' W 122°27'2 4.1
2018-Jun-20 16:00N 37°49' W 122°25'0 0.0
2018-Jun-20 04:04N 37°49' W 122°25'0 0.1
2018-Jun-20 04:00N 37°49' W 122°25'3 5.6
2018-Jun-20 03:30N 37°49' W 122°28'3 5.6
2018-Jun-20 03:00N 37°52' W 122°29'3 5.6
2018-Jun-20 02:30N 37°52' W 122°25'3 6.7
2018-Jun-20 02:00N 37°49' W 122°25'0 0.0
2018-Jun-20 01:30N 37°49' W 122°25'0 0.0
2018-Jun-20 01:00N 37°49' W 122°25'0 0.0
2018-Jun-20 00:30N 37°49' W 122°25'2 4.3
2018-Jun-20 00:00N 37°47' W 122°23'4 7.8
2018-Jun-19 23:30N 37°49' W 122°27'2 3.6
2018-Jun-19 23:01N 37°49' W 122°25'1 1.9
2018-Jun-19 22:31N 37°48' W 122°24'1 1.8
2018-Jun-19 22:00N 37°49' W 122°24'2 4.5
2018-Jun-19 21:31N 37°49' W 122°27'2 3.4
2018-Jun-19 21:01N 37°49' W 122°25'2 4.3
2018-Jun-19 20:30N 37°47' W 122°23'4 8.2
2018-Jun-19 20:00N 37°49' W 122°27'2 3.9
2018-Jun-19 19:31N 37°49' W 122°25'0 0.0
2018-Jun-19 19:01N 37°49' W 122°25'1 2.5
2018-Jun-19 18:31N 37°48' W 122°23'4 8.3
2018-Jun-19 18:00N 37°49' W 122°29'3 5.9
2018-Jun-19 17:30N 37°49' W 122°25'1 2.2
2018-Jun-19 17:01N 37°50' W 122°25'2 3.2
2018-Jun-19 16:30N 37°49' W 122°27'2 3.4
2018-Jun-19 16:00N 37°49' W 122°25'0 0.0
2018-Jun-19 04:05N 37°49' W 122°25'0 0.0
2018-Jun-19 04:00N 37°49' W 122°25'3 6.1
2018-Jun-19 03:30N 37°49' W 122°29'3 5.6
2018-Jun-19 03:01N 37°52' W 122°29'3 5.9
2018-Jun-19 02:30N 37°52' W 122°25'3 6.5
2018-Jun-19 02:00N 37°49' W 122°25'0 0.0
2018-Jun-19 01:30N 37°49' W 122°25'0 0.0
2018-Jun-19 01:00N 37°49' W 122°25'0 0.0
2018-Jun-19 00:30N 37°49' W 122°25'2 4.2
2018-Jun-19 00:01N 37°47' W 122°23'4 8.3
2018-Jun-18 23:31N 37°49' W 122°27'2 4.2
2018-Jun-18 23:00N 37°49' W 122°25'1 2.4
2018-Jun-18 22:30N 37°48' W 122°24'2 4.1
2018-Jun-18 22:00N 37°50' W 122°25'1 2.3
2018-Jun-18 21:30N 37°49' W 122°26'1 2.5
2018-Jun-18 21:00N 37°49' W 122°25'2 4.5
2018-Jun-18 20:30N 37°47' W 122°23'4 8.7
2018-Jun-18 20:00N 37°49' W 122°28'2 4.6
2018-Jun-18 19:30N 37°49' W 122°25'0 0.0
2018-Jun-18 19:00N 37°49' W 122°25'2 3.7
2018-Jun-18 18:30N 37°48' W 122°23'4 8.1
2018-Jun-18 18:00N 37°49' W 122°27'2 4.3
2018-Jun-18 17:30N 37°49' W 122°25'1 1.7
2018-Jun-18 17:00N 37°49' W 122°25'2 4.2
2018-Jun-18 16:30N 37°49' W 122°27'2 4.1
2018-Jun-18 16:00N 37°49' W 122°25'0 0.0
2018-Jun-18 04:06N 37°49' W 122°25'0 0.0
2018-Jun-18 04:00N 37°49' W 122°25'3 6.4
2018-Jun-18 03:30N 37°49' W 122°29'3 5.9
2018-Jun-18 03:00N 37°52' W 122°29'3 6.3
2018-Jun-18 02:30N 37°51' W 122°25'3 5.9
2018-Jun-18 02:00N 37°49' W 122°25'0 0.0
2018-Jun-18 01:30N 37°49' W 122°25'0 0.0
2018-Jun-18 01:00N 37°49' W 122°25'0 0.0
2018-Jun-18 00:30N 37°49' W 122°25'2 4.1
2018-Jun-18 00:00N 37°47' W 122°23'4 8.6
2018-Jun-17 23:30N 37°50' W 122°27'2 4.5
2018-Jun-17 23:00N 37°49' W 122°25'1 2.5
2018-Jun-17 22:30N 37°48' W 122°23'2 4.4
2018-Jun-17 22:00N 37°50' W 122°25'1 2.6
2018-Jun-17 21:31N 37°49' W 122°27'1 2.7
2018-Jun-17 21:00N 37°49' W 122°25'2 4.3
2018-Jun-17 20:30N 37°47' W 122°23'4 8.9
2018-Jun-17 20:01N 37°49' W 122°28'2 4.5
2018-Jun-17 19:30N 37°49' W 122°25'0 0.0
2018-Jun-17 19:00N 37°49' W 122°25'2 3.9
2018-Jun-17 18:30N 37°48' W 122°23'5 9.1
2018-Jun-17 18:00N 37°49' W 122°28'3 5.3
2018-Jun-17 17:30N 37°49' W 122°25'1 2.3
2018-Jun-17 17:00N 37°50' W 122°25'1 2.6
2018-Jun-17 16:30N 37°49' W 122°26'1 2.5
2018-Jun-17 16:01N 37°49' W 122°25'0 0.0
2018-Jun-17 15:31N 37°49' W 122°25'0 0.0
2018-Jun-17 04:07N 37°49' W 122°25'0 0.0
2018-Jun-17 04:00N 37°49' W 122°25'3 6.1
2018-Jun-17 03:30N 37°49' W 122°29'2 4.9
2018-Jun-17 03:00N 37°52' W 122°29'3 6.0
2018-Jun-17 02:30N 37°52' W 122°25'3 5.9
2018-Jun-17 02:00N 37°49' W 122°25'0 0.0
2018-Jun-17 01:30N 37°49' W 122°25'0 0.0
2018-Jun-17 01:00N 37°49' W 122°25'0 0.0
2018-Jun-17 00:30N 37°49' W 122°25'1 2.4
2018-Jun-17 00:00N 37°49' W 122°23'4 8.4
2018-Jun-16 23:31N 37°49' W 122°29'3 6.0
2018-Jun-16 23:00N 37°49' W 122°25'0 0.0
2018-Jun-16 22:30N 37°49' W 122°25'0 0.0
2018-Jun-16 22:00N 37°49' W 122°25'0 0.0
2018-Jun-16 21:30N 37°49' W 122°25'0 0.0
2018-Jun-16 21:01N 37°49' W 122°25'2 3.4
2018-Jun-16 20:30N 37°48' W 122°23'4 8.3
2018-Jun-16 20:00N 37°49' W 122°28'2 4.8
2018-Jun-16 19:30N 37°49' W 122°25'0 0.0
2018-Jun-16 19:00N 37°49' W 122°25'2 4.1
2018-Jun-16 18:30N 37°47' W 122°23'5 9.5
2018-Jun-16 18:00N 37°49' W 122°28'3 5.4
2018-Jun-16 17:30N 37°49' W 122°25'1 2.2
2018-Jun-16 17:00N 37°50' W 122°25'1 2.5
2018-Jun-16 16:30N 37°49' W 122°27'1 2.7
2018-Jun-16 16:00N 37°49' W 122°25'0 0.0
2018-Jun-16 15:30N 37°49' W 122°25'0 0.0
2018-Jun-16 04:03N 37°49' W 122°25'0 0.0
2018-Jun-16 04:00N 37°49' W 122°25'3 6.1
2018-Jun-16 03:30N 37°49' W 122°29'2 4.5
2018-Jun-16 03:00N 37°52' W 122°29'3 5.7
2018-Jun-16 02:30N 37°51' W 122°25'3 5.6
2018-Jun-16 02:00N 37°49' W 122°25'0 0.0
2018-Jun-16 01:30N 37°49' W 122°25'0 0.0
2018-Jun-16 01:00N 37°49' W 122°25'0 0.0
2018-Jun-16 00:30N 37°49' W 122°25'2 3.5
2018-Jun-16 00:00N 37°48' W 122°23'4 8.1
2018-Jun-15 23:31N 37°49' W 122°28'2 4.5
2018-Jun-15 23:00N 37°49' W 122°25'1 1.7
2018-Jun-15 22:30N 37°49' W 122°24'1 2.8
2018-Jun-15 22:00N 37°50' W 122°25'2 3.3
2018-Jun-15 21:30N 37°49' W 122°27'2 3.4
2018-Jun-15 21:00N 37°49' W 122°25'2 3.9
2018-Jun-15 20:30N 37°48' W 122°23'4 8.3
2018-Jun-15 20:00N 37°49' W 122°27'2 4.4
2018-Jun-15 19:30N 37°49' W 122°25'0 0.0
2018-Jun-15 19:00N 37°49' W 122°25'2 4.0
2018-Jun-15 18:30N 37°48' W 122°23'5 9.5
2018-Jun-15 18:00N 37°49' W 122°28'3 5.9
2018-Jun-15 17:31N 37°49' W 122°25'1 2.5
2018-Jun-15 17:00N 37°50' W 122°25'1 2.4
2018-Jun-15 16:31N 37°49' W 122°26'1 2.4
2018-Jun-15 16:01N 37°49' W 122°25'0 0.0
2018-Jun-15 15:30N 37°49' W 122°25'0 0.0
2018-Jun-15 04:10N 37°49' W 122°25'0 0.0
2018-Jun-15 04:00N 37°49' W 122°25'3 7.0
2018-Jun-15 03:30N 37°49' W 122°29'3 5.4
2018-Jun-15 03:00N 37°52' W 122°29'3 6.4
2018-Jun-15 02:30N 37°51' W 122°25'3 5.5
2018-Jun-15 02:00N 37°49' W 122°25'0 0.0
2018-Jun-15 01:30N 37°49' W 122°25'0 0.0
2018-Jun-15 01:00N 37°49' W 122°25'0 0.0
2018-Jun-15 00:30N 37°49' W 122°25'2 3.7
2018-Jun-15 00:00N 37°48' W 122°23'4 7.9
2018-Jun-14 23:30N 37°49' W 122°27'2 4.3
2018-Jun-14 23:00N 37°49' W 122°25'1 1.4
2018-Jun-14 22:31N 37°49' W 122°24'1 2.3
2018-Jun-14 22:00N 37°49' W 122°25'2 3.9
2018-Jun-14 21:30N 37°49' W 122°27'2 3.8
2018-Jun-14 21:00N 37°49' W 122°25'2 4.2
2018-Jun-14 20:30N 37°48' W 122°22'4 8.6
2018-Jun-14 20:01N 37°50' W 122°27'2 4.5
2018-Jun-14 19:31N 37°49' W 122°25'0 0.0
2018-Jun-14 19:00N 37°49' W 122°25'2 4.5
2018-Jun-14 18:30N 37°47' W 122°23'5 9.1
2018-Jun-14 18:00N 37°49' W 122°28'2 4.6
2018-Jun-14 17:30N 37°49' W 122°25'1 1.9
2018-Jun-14 17:00N 37°50' W 122°25'1 2.6
2018-Jun-14 16:30N 37°49' W 122°27'1 0.1
2018-Jun-14 04:21N 37°49' W 122°25'0 0.0
2018-Jun-14 04:00N 37°49' W 122°25'3 6.3
2018-Jun-14 03:30N 37°49' W 122°29'3 5.2
2018-Jun-14 03:00N 37°52' W 122°29'4 7.0
2018-Jun-14 02:30N 37°51' W 122°25'3 5.7
2018-Jun-14 02:00N 37°49' W 122°25'0 0.0
2018-Jun-14 01:30N 37°49' W 122°25'0 0.0
2018-Jun-14 01:00N 37°49' W 122°25'0 0.0
2018-Jun-14 00:30N 37°49' W 122°25'1 1.9
2018-Jun-14 00:00N 37°50' W 122°25'2 3.3
2018-Jun-13 23:30N 37°49' W 122°27'2 3.4
2018-Jun-13 23:00N 37°49' W 122°25'2 4.5
2018-Jun-13 22:30N 37°49' W 122°27'2 4.5
2018-Jun-13 22:00N 37°49' W 122°25'1 1.1
2018-Jun-13 21:30N 37°49' W 122°25'3 5.4
2018-Jun-13 21:00N 37°49' W 122°28'2 4.9
2018-Jun-13 20:30N 37°49' W 122°25'0 0.0
2018-Jun-13 20:00N 37°49' W 122°25'1 2.1
2018-Jun-13 19:30N 37°50' W 122°25'1 3.0
2018-Jun-13 19:01N 37°49' W 122°27'1 3.0
2018-Jun-13 18:31N 37°49' W 122°25'0 0.0
2018-Jun-13 04:03N 37°49' W 122°25'0 0.0
2018-Jun-13 04:00N 37°49' W 122°25'3 6.2
2018-Jun-13 03:30N 37°49' W 122°29'2 4.9
2018-Jun-13 03:00N 37°52' W 122°29'3 6.0
2018-Jun-13 02:30N 37°51' W 122°25'2 4.9
2018-Jun-13 02:00N 37°49' W 122°25'0 0.0
2018-Jun-13 01:30N 37°49' W 122°25'0 0.0
2018-Jun-13 01:00N 37°49' W 122°25'0 0.0
2018-Jun-12 04:05N 37°49' W 122°25'0 0.0
2018-Jun-12 04:00N 37°49' W 122°25'3 6.1
2018-Jun-12 03:30N 37°49' W 122°29'1 2.6
2018-Jun-12 03:00N 37°50' W 122°28'3 6.1
2018-Jun-12 02:30N 37°52' W 122°26'4 7.6
2018-Jun-12 02:00N 37°49' W 122°25'0 0.1
2018-Jun-12 01:31N 37°49' W 122°25'0 0.0
2018-Jun-12 01:00N 37°49' W 122°25'0 0.0
2018-Jun-12 00:31N 37°49' W 122°25'2 4.3
2018-Jun-12 00:01N 37°47' W 122°23'4 8.0
2018-Jun-11 23:31N 37°50' W 122°27'2 3.7
2018-Jun-11 23:00N 37°49' W 122°25'1 1.8
2018-Jun-11 22:30N 37°48' W 122°24'1 2.7
2018-Jun-11 22:00N 37°49' W 122°25'2 4.2
2018-Jun-11 21:30N 37°49' W 122°27'2 4.0
2018-Jun-11 21:00N 37°49' W 122°25'2 4.0
2018-Jun-11 20:31N 37°48' W 122°23'4 8.0
2018-Jun-11 20:01N 37°49' W 122°27'2 4.0
2018-Jun-11 19:31N 37°49' W 122°25'0 0.0
2018-Jun-11 19:00N 37°49' W 122°25'2 3.5
2018-Jun-11 18:30N 37°48' W 122°23'4 8.4
2018-Jun-11 18:01N 37°50' W 122°28'2 4.9
2018-Jun-11 17:31N 37°49' W 122°25'1 2.1
2018-Jun-11 17:00N 37°50' W 122°25'2 3.3
2018-Jun-11 16:30N 37°49' W 122°27'2 3.3
2018-Jun-11 16:01N 37°49' W 122°25'0 0.0
2018-Jun-11 04:07N 37°49' W 122°25'  
Track history (hours):
 
Tides and Currents Weather Stations Pressure Air Temp Water Temp Dewpoint Dewpoint Depression Visibility Wind Speed Wind Dir Waves Ship Positions

Zalophus

Owner: Golden Gate Scenic Steamship Corp, San Francisco, CA. More information available from US FCC via Universal Licensing System and Coast Guard Vessel Documentation Center.

Last reported at 2018-Jun-21 04:05 UTC. Time now 2018-Jun-21 11:53 UTC.
Position N 37°49' W 122°25'.

Length 47 m; draft 3 m.

Type: Passenger vessel. MMSI: 367565170.

Date/timePositionNaut miles runAvg speedWind from/ knotsBaromVisibWave heightAir tempDewpointWater temp
2018-Jun-21 04:05N 37°49' W 122°25'0 0.0
2018-Jun-21 04:00N 37°49' W 122°25'4 7.2
2018-Jun-21 03:31N 37°49' W 122°29'2 4.9
2018-Jun-21 03:00N 37°51' W 122°28'3 5.2
2018-Jun-21 02:31N 37°51' W 122°25'2 4.2
2018-Jun-21 02:01N 37°49' W 122°25'0 0.0
2018-Jun-21 01:30N 37°49' W 122°25'0 0.0
2018-Jun-21 01:01N 37°49' W 122°25'0 0.0
2018-Jun-21 00:31N 37°49' W 122°25'2 3.9
2018-Jun-21 00:00N 37°48' W 122°23'4 8.6
2018-Jun-20 23:31N 37°49' W 122°28'2 4.6
2018-Jun-20 23:00N 37°49' W 122°25'2 3.1
2018-Jun-20 22:30N 37°48' W 122°23'2 4.8
2018-Jun-20 22:00N 37°50' W 122°25'1 2.4
2018-Jun-20 21:30N 37°49' W 122°27'1 2.9
2018-Jun-20 21:00N 37°49' W 122°25'2 3.9
2018-Jun-20 20:30N 37°47' W 122°23'4 8.1
2018-Jun-20 20:00N 37°49' W 122°27'2 4.2
2018-Jun-20 19:30N 37°49' W 122°25'0 0.0
2018-Jun-20 19:00N 37°49' W 122°25'2 4.5
2018-Jun-20 18:30N 37°47' W 122°23'4 8.0
2018-Jun-20 18:00N 37°49' W 122°27'2 3.5
2018-Jun-20 17:30N 37°49' W 122°25'1 2.1
2018-Jun-20 17:01N 37°50' W 122°25'2 4.0
2018-Jun-20 16:30N 37°49' W 122°27'2 4.1
2018-Jun-20 16:00N 37°49' W 122°25'0 0.0
2018-Jun-20 04:04N 37°49' W 122°25'0 0.1
2018-Jun-20 04:00N 37°49' W 122°25'3 5.6
2018-Jun-20 03:30N 37°49' W 122°28'3 5.6
2018-Jun-20 03:00N 37°52' W 122°29'3 5.6
2018-Jun-20 02:30N 37°52' W 122°25'3 6.7
2018-Jun-20 02:00N 37°49' W 122°25'0 0.0
2018-Jun-20 01:30N 37°49' W 122°25'0 0.0
2018-Jun-20 01:00N 37°49' W 122°25'0 0.0
2018-Jun-20 00:30N 37°49' W 122°25'2 4.3
2018-Jun-20 00:00N 37°47' W 122°23'4 7.8
2018-Jun-19 23:30N 37°49' W 122°27'2 3.6
2018-Jun-19 23:01N 37°49' W 122°25'1 1.9
2018-Jun-19 22:31N 37°48' W 122°24'1 1.8
2018-Jun-19 22:00N 37°49' W 122°24'2 4.5
2018-Jun-19 21:31N 37°49' W 122°27'2 3.4
2018-Jun-19 21:01N 37°49' W 122°25'2 4.3
2018-Jun-19 20:30N 37°47' W 122°23'4 8.2
2018-Jun-19 20:00N 37°49' W 122°27'2 3.9
2018-Jun-19 19:31N 37°49' W 122°25'0 0.0
2018-Jun-19 19:01N 37°49' W 122°25'1 2.5
2018-Jun-19 18:31N 37°48' W 122°23'4 8.3
2018-Jun-19 18:00N 37°49' W 122°29'3 5.9
2018-Jun-19 17:30N 37°49' W 122°25'1 2.2
2018-Jun-19 17:01N 37°50' W 122°25'2 3.2
2018-Jun-19 16:30N 37°49' W 122°27'2 3.4
2018-Jun-19 16:00N 37°49' W 122°25'0 0.0
2018-Jun-19 04:05N 37°49' W 122°25'0 0.0
2018-Jun-19 04:00N 37°49' W 122°25'3 6.1
2018-Jun-19 03:30N 37°49' W 122°29'3 5.6
2018-Jun-19 03:01N 37°52' W 122°29'3 5.9
2018-Jun-19 02:30N 37°52' W 122°25'3 6.5
2018-Jun-19 02:00N 37°49' W 122°25'0 0.0
2018-Jun-19 01:30N 37°49' W 122°25'0 0.0
2018-Jun-19 01:00N 37°49' W 122°25'0 0.0
2018-Jun-19 00:30N 37°49' W 122°25'2 4.2
2018-Jun-19 00:01N 37°47' W 122°23'4 8.3
2018-Jun-18 23:31N 37°49' W 122°27'2 4.2
2018-Jun-18 23:00N 37°49' W 122°25'1 2.4
2018-Jun-18 22:30N 37°48' W 122°24'2 4.1
2018-Jun-18 22:00N 37°50' W 122°25'1 2.3
2018-Jun-18 21:30N 37°49' W 122°26'1 2.5
2018-Jun-18 21:00N 37°49' W 122°25'2 4.5
2018-Jun-18 20:30N 37°47' W 122°23'4 8.7
2018-Jun-18 20:00N 37°49' W 122°28'2 4.6
2018-Jun-18 19:30N 37°49' W 122°25'0 0.0
2018-Jun-18 19:00N 37°49' W 122°25'2 3.7
2018-Jun-18 18:30N 37°48' W 122°23'4 8.1
2018-Jun-18 18:00N 37°49' W 122°27'2 4.3
2018-Jun-18 17:30N 37°49' W 122°25'1 1.7
2018-Jun-18 17:00N 37°49' W 122°25'2 4.2
2018-Jun-18 16:30N 37°49' W 122°27'2 4.1
2018-Jun-18 16:00N 37°49' W 122°25'0 0.0
2018-Jun-18 04:06N 37°49' W 122°25'0 0.0
2018-Jun-18 04:00N 37°49' W 122°25'3 6.4
2018-Jun-18 03:30N 37°49' W 122°29'3 5.9
2018-Jun-18 03:00N 37°52' W 122°29'3 6.3
2018-Jun-18 02:30N 37°51' W 122°25'3 5.9
2018-Jun-18 02:00N 37°49' W 122°25'0 0.0
2018-Jun-18 01:30N 37°49' W 122°25'0 0.0
2018-Jun-18 01:00N 37°49' W 122°25'0 0.0
2018-Jun-18 00:30N 37°49' W 122°25'2 4.1
2018-Jun-18 00:00N 37°47' W 122°23'4 8.6
2018-Jun-17 23:30N 37°50' W 122°27'2 4.5
2018-Jun-17 23:00N 37°49' W 122°25'1 2.5
2018-Jun-17 22:30N 37°48' W 122°23'2 4.4
2018-Jun-17 22:00N 37°50' W 122°25'1 2.6
2018-Jun-17 21:31N 37°49' W 122°27'1 2.7
2018-Jun-17 21:00N 37°49' W 122°25'2 4.3
2018-Jun-17 20:30N 37°47' W 122°23'4 8.9
2018-Jun-17 20:01N 37°49' W 122°28'2 4.5
2018-Jun-17 19:30N 37°49' W 122°25'0 0.0
2018-Jun-17 19:00N 37°49' W 122°25'2 3.9
2018-Jun-17 18:30N 37°48' W 122°23'5 9.1
2018-Jun-17 18:00N 37°49' W 122°28'3 5.3
2018-Jun-17 17:30N 37°49' W 122°25'1 2.3
2018-Jun-17 17:00N 37°50' W 122°25'1 2.6
2018-Jun-17 16:30N 37°49' W 122°26'1 2.5
2018-Jun-17 16:01N 37°49' W 122°25'0 0.0
2018-Jun-17 15:31N 37°49' W 122°25'0 0.0
2018-Jun-17 04:07N 37°49' W 122°25'0 0.0
2018-Jun-17 04:00N 37°49' W 122°25'3 6.1
2018-Jun-17 03:30N 37°49' W 122°29'2 4.9
2018-Jun-17 03:00N 37°52' W 122°29'3 6.0
2018-Jun-17 02:30N 37°52' W 122°25'3 5.9
2018-Jun-17 02:00N 37°49' W 122°25'0 0.0
2018-Jun-17 01:30N 37°49' W 122°25'0 0.0
2018-Jun-17 01:00N 37°49' W 122°25'0 0.0
2018-Jun-17 00:30N 37°49' W 122°25'1 2.4
2018-Jun-17 00:00N 37°49' W 122°23'4 8.4
2018-Jun-16 23:31N 37°49' W 122°29'3 6.0
2018-Jun-16 23:00N 37°49' W 122°25'0 0.0
2018-Jun-16 22:30N 37°49' W 122°25'0 0.0
2018-Jun-16 22:00N 37°49' W 122°25'0 0.0
2018-Jun-16 21:30N 37°49' W 122°25'0 0.0
2018-Jun-16 21:01N 37°49' W 122°25'2 3.4
2018-Jun-16 20:30N 37°48' W 122°23'4 8.3
2018-Jun-16 20:00N 37°49' W 122°28'2 4.8
2018-Jun-16 19:30N 37°49' W 122°25'0 0.0
2018-Jun-16 19:00N 37°49' W 122°25'2 4.1
2018-Jun-16 18:30N 37°47' W 122°23'5 9.5
2018-Jun-16 18:00N 37°49' W 122°28'3 5.4
2018-Jun-16 17:30N 37°49' W 122°25'1 2.2
2018-Jun-16 17:00N 37°50' W 122°25'1 2.5
2018-Jun-16 16:30N 37°49' W 122°27'1 2.7
2018-Jun-16 16:00N 37°49' W 122°25'0 0.0
2018-Jun-16 15:30N 37°49' W 122°25'0 0.0
2018-Jun-16 04:03N 37°49' W 122°25'0 0.0
2018-Jun-16 04:00N 37°49' W 122°25'3 6.1
2018-Jun-16 03:30N 37°49' W 122°29'2 4.5
2018-Jun-16 03:00N 37°52' W 122°29'3 5.7
2018-Jun-16 02:30N 37°51' W 122°25'3 5.6
2018-Jun-16 02:00N 37°49' W 122°25'0 0.0
2018-Jun-16 01:30N 37°49' W 122°25'0 0.0
2018-Jun-16 01:00N 37°49' W 122°25'0 0.0
2018-Jun-16 00:30N 37°49' W 122°25'2 3.5
2018-Jun-16 00:00N 37°48' W 122°23'4 8.1
2018-Jun-15 23:31N 37°49' W 122°28'2 4.5
2018-Jun-15 23:00N 37°49' W 122°25'1 1.7
2018-Jun-15 22:30N 37°49' W 122°24'1 2.8
2018-Jun-15 22:00N 37°50' W 122°25'2 3.3
2018-Jun-15 21:30N 37°49' W 122°27'2 3.4
2018-Jun-15 21:00N 37°49' W 122°25'2 3.9
2018-Jun-15 20:30N 37°48' W 122°23'4 8.3
2018-Jun-15 20:00N 37°49' W 122°27'2 4.4
2018-Jun-15 19:30N 37°49' W 122°25'0 0.0
2018-Jun-15 19:00N 37°49' W 122°25'2 4.0
2018-Jun-15 18:30N 37°48' W 122°23'5 9.5
2018-Jun-15 18:00N 37°49' W 122°28'3 5.9
2018-Jun-15 17:31N 37°49' W 122°25'1 2.5
2018-Jun-15 17:00N 37°50' W 122°25'1 2.4
2018-Jun-15 16:31N 37°49' W 122°26'1 2.4
2018-Jun-15 16:01N 37°49' W 122°25'0 0.0
2018-Jun-15 15:30N 37°49' W 122°25'0 0.0
2018-Jun-15 04:10N 37°49' W 122°25'0 0.0
2018-Jun-15 04:00N 37°49' W 122°25'3 7.0
2018-Jun-15 03:30N 37°49' W 122°29'3 5.4
2018-Jun-15 03:00N 37°52' W 122°29'3 6.4
2018-Jun-15 02:30N 37°51' W 122°25'3 5.5
2018-Jun-15 02:00N 37°49' W 122°25'0 0.0
2018-Jun-15 01:30N 37°49' W 122°25'0 0.0
2018-Jun-15 01:00N 37°49' W 122°25'0 0.0
2018-Jun-15 00:30N 37°49' W 122°25'2 3.7
2018-Jun-15 00:00N 37°48' W 122°23'4 7.9
2018-Jun-14 23:30N 37°49' W 122°27'2 4.3
2018-Jun-14 23:00N 37°49' W 122°25'1 1.4
2018-Jun-14 22:31N 37°49' W 122°24'1 2.3
2018-Jun-14 22:00N 37°49' W 122°25'2 3.9
2018-Jun-14 21:30N 37°49' W 122°27'2 3.8
2018-Jun-14 21:00N 37°49' W 122°25'2 4.2
2018-Jun-14 20:30N 37°48' W 122°22'4 8.6
2018-Jun-14 20:01N 37°50' W 122°27'2 4.5
2018-Jun-14 19:31N 37°49' W 122°25'0 0.0
2018-Jun-14 19:00N 37°49' W 122°25'2 4.5
2018-Jun-14 18:30N 37°47' W 122°23'5 9.1
2018-Jun-14 18:00N 37°49' W 122°28'2 4.6
2018-Jun-14 17:30N 37°49' W 122°25'1 1.9
2018-Jun-14 17:00N 37°50' W 122°25'1 2.6
2018-Jun-14 16:30N 37°49' W 122°27'1 0.1
2018-Jun-14 04:21N 37°49' W 122°25'0 0.0
2018-Jun-14 04:00N 37°49' W 122°25'3 6.3
2018-Jun-14 03:30N 37°49' W 122°29'3 5.2
2018-Jun-14 03:00N 37°52' W 122°29'4 7.0
2018-Jun-14 02:30N 37°51' W 122°25'3 5.7
2018-Jun-14 02:00N 37°49' W 122°25'0 0.0
2018-Jun-14 01:30N 37°49' W 122°25'0 0.0
2018-Jun-14 01:00N 37°49' W 122°25'0 0.0
2018-Jun-14 00:30N 37°49' W 122°25'1 1.9
2018-Jun-14 00:00N 37°50' W 122°25'2 3.3
2018-Jun-13 23:30N 37°49' W 122°27'2 3.4
2018-Jun-13 23:00N 37°49' W 122°25'2 4.5
2018-Jun-13 22:30N 37°49' W 122°27'2 4.5
2018-Jun-13 22:00N 37°49' W 122°25'1 1.1
2018-Jun-13 21:30N 37°49' W 122°25'3 5.4
2018-Jun-13 21:00N 37°49' W 122°28'2 4.9
2018-Jun-13 20:30N 37°49' W 122°25'0 0.0
2018-Jun-13 20:00N 37°49' W 122°25'1 2.1
2018-Jun-13 19:30N 37°50' W 122°25'1 3.0
2018-Jun-13 19:01N 37°49' W 122°27'1 3.0
2018-Jun-13 18:31N 37°49' W 122°25'0 0.0
2018-Jun-13 04:03N 37°49' W 122°25'0 0.0
2018-Jun-13 04:00N 37°49' W 122°25'3 6.2
2018-Jun-13 03:30N 37°49' W 122°29'2 4.9
2018-Jun-13 03:00N 37°52' W 122°29'3 6.0
2018-Jun-13 02:30N 37°51' W 122°25'2 4.9
2018-Jun-13 02:00N 37°49' W 122°25'0 0.0
2018-Jun-13 01:30N 37°49' W 122°25'0 0.0
2018-Jun-13 01:00N 37°49' W 122°25'0 0.0
2018-Jun-12 04:05N 37°49' W 122°25'0 0.0
2018-Jun-12 04:00N 37°49' W 122°25'3 6.1
2018-Jun-12 03:30N 37°49' W 122°29'1 2.6
2018-Jun-12 03:00N 37°50' W 122°28'3 6.1
2018-Jun-12 02:30N 37°52' W 122°26'4 7.6
2018-Jun-12 02:00N 37°49' W 122°25'0 0.1
2018-Jun-12 01:31N 37°49' W 122°25'0 0.0
2018-Jun-12 01:00N 37°49' W 122°25'0 0.0
2018-Jun-12 00:31N 37°49' W 122°25'2 4.3
2018-Jun-12 00:01N 37°47' W 122°23'4 8.0
2018-Jun-11 23:31N 37°50' W 122°27'2 3.7
2018-Jun-11 23:00N 37°49' W 122°25'1 1.8
2018-Jun-11 22:30N 37°48' W 122°24'1 2.7
2018-Jun-11 22:00N 37°49' W 122°25'2 4.2
2018-Jun-11 21:30N 37°49' W 122°27'2 4.0
2018-Jun-11 21:00N 37°49' W 122°25'2 4.0
2018-Jun-11 20:31N 37°48' W 122°23'4 8.0
2018-Jun-11 20:01N 37°49' W 122°27'2 4.0
2018-Jun-11 19:31N 37°49' W 122°25'0 0.0
2018-Jun-11 19:00N 37°49' W 122°25'2 3.5
2018-Jun-11 18:30N 37°48' W 122°23'4 8.4
2018-Jun-11 18:01N 37°50' W 122°28'2 4.9
2018-Jun-11 17:31N 37°49' W 122°25'1 2.1
2018-Jun-11 17:00N 37°50' W 122°25'2 3.3
2018-Jun-11 16:30N 37°49' W 122°27'2 3.3
2018-Jun-11 16:01N 37°49' W 122°25'0 0.0
2018-Jun-11 04:07N 37°49' W 122°25'  

Dump ship's entire track history